createdAt,value
2022-10-04T00:13:34.843Z,15.70
2022-10-04T00:16:31.376Z,15.80
2022-10-04T00:19:42.677Z,15.80
2022-10-04T00:22:34.904Z,15.80
2022-10-04T00:28:55.846Z,15.80
2022-10-04T00:32:23.070Z,15.80
2022-10-04T00:35:53.400Z,15.80
2022-10-04T00:38:44.990Z,15.80
2022-10-04T00:41:41.124Z,15.80
2022-10-04T00:44:37.630Z,15.80
2022-10-04T00:47:33.290Z,15.90
2022-10-04T00:53:22.722Z,15.90
2022-10-04T00:56:17.384Z,15.90
2022-10-04T00:59:33.500Z,15.90
2022-10-04T01:02:28.293Z,15.90
2022-10-04T01:21:32.962Z,15.80
2022-10-04T01:24:25.134Z,15.90
2022-10-04T01:27:40.272Z,15.90
2022-10-04T01:30:31.588Z,15.90
2022-10-04T01:36:14.635Z,15.80
2022-10-04T01:39:06.882Z,15.80
2022-10-04T01:42:02.004Z,15.70
2022-10-04T01:44:56.435Z,15.70
2022-10-04T01:47:51.808Z,15.70
2022-10-04T01:50:46.277Z,15.60
2022-10-04T02:00:04.000Z,15.50
2022-10-04T02:08:41.064Z,15.40
2022-10-04T02:11:33.479Z,15.40
2022-10-04T02:14:27.636Z,15.40
2022-10-04T02:17:19.817Z,15.40
2022-10-04T02:20:15.990Z,15.30
2022-10-04T02:23:07.937Z,15.20
2022-10-04T02:26:00.600Z,15.30
2022-10-04T02:28:52.842Z,15.20
2022-10-04T02:32:01.879Z,15.20
2022-10-04T02:34:54.918Z,15.20
2022-10-04T02:37:47.118Z,15.10
2022-10-04T02:40:42.437Z,15.00
2022-10-04T02:43:37.078Z,15.00
2022-10-04T03:02:40.623Z,14.90
2022-10-04T03:05:32.522Z,14.80
2022-10-04T03:08:24.695Z,14.80
2022-10-04T03:14:13.954Z,14.90
2022-10-04T03:17:08.743Z,14.90
2022-10-04T03:20:00.727Z,14.90
2022-10-04T03:22:55.641Z,14.90
2022-10-04T03:25:51.935Z,15.00
2022-10-04T03:28:45.470Z,15.00
2022-10-04T03:31:41.185Z,15.00
2022-10-04T03:34:35.816Z,15.00
2022-10-04T03:37:31.171Z,15.00
2022-10-04T03:40:25.824Z,15.00
2022-10-04T03:43:18.009Z,15.10
2022-10-04T03:48:53.355Z,15.00
2022-10-04T03:54:36.656Z,15.00
2022-10-04T03:57:28.326Z,14.90
2022-10-04T04:03:14.923Z,14.90
2022-10-04T04:06:09.400Z,14.90
2022-10-04T04:09:06.823Z,14.80
2022-10-04T04:12:01.000Z,14.70
2022-10-04T04:14:54.852Z,14.70
2022-10-04T04:17:48.305Z,14.70
2022-10-04T04:20:44.682Z,14.60
2022-10-04T04:23:38.701Z,14.50
2022-10-04T04:26:37.627Z,14.40
2022-10-04T04:29:33.034Z,14.50
2022-10-04T04:35:26.887Z,14.40
2022-10-04T04:38:21.782Z,14.30
2022-10-04T04:41:15.647Z,14.30
2022-10-04T04:46:51.103Z,14.30
2022-10-04T04:49:42.966Z,14.20
2022-10-04T04:52:36.540Z,14.20
2022-10-04T04:58:22.401Z,14.20
2022-10-04T05:04:25.005Z,14.10
2022-10-04T05:07:19.992Z,14.10
2022-10-04T05:10:28.408Z,14.00
2022-10-04T05:13:21.082Z,14.00
2022-10-04T05:16:16.519Z,14.00
2022-10-04T05:19:14.867Z,14.00
2022-10-04T05:22:10.733Z,13.90
2022-10-04T05:25:07.501Z,13.90
2022-10-04T05:28:08.032Z,13.90
2022-10-04T05:31:09.530Z,13.90
2022-10-04T05:34:01.441Z,13.90
2022-10-04T05:37:10.229Z,13.80
2022-10-04T05:42:50.383Z,13.90
2022-10-04T05:48:22.901Z,14.00
2022-10-04T05:54:01.546Z,14.00
2022-10-04T05:57:40.698Z,14.00
2022-10-04T06:03:23.006Z,14.00
2022-10-04T06:06:19.242Z,14.00
2022-10-04T06:09:15.387Z,14.00
2022-10-04T06:12:10.985Z,14.00
2022-10-04T06:15:47.234Z,13.90
2022-10-04T06:18:55.909Z,13.90
2022-10-04T06:21:59.430Z,13.90
2022-10-04T06:24:54.397Z,13.80
2022-10-04T06:33:33.809Z,13.70
2022-10-04T06:40:27.993Z,13.90
2022-10-04T06:43:36.550Z,14.00
2022-10-04T06:49:18.836Z,14.00
2022-10-04T06:55:46.917Z,14.10
2022-10-04T06:59:15.810Z,14.20
2022-10-04T07:02:11.837Z,14.10
2022-10-04T07:05:10.117Z,14.20
2022-10-04T07:10:55.670Z,14.30
2022-10-04T07:13:56.770Z,14.50
2022-10-04T07:16:51.286Z,14.50
2022-10-04T07:19:45.708Z,14.60
2022-10-04T07:22:40.792Z,14.50
2022-10-04T07:28:37.801Z,14.70
2022-10-04T07:31:32.440Z,14.80
2022-10-04T07:34:28.935Z,14.80
2022-10-04T07:37:21.032Z,14.90
2022-10-04T07:42:55.452Z,15.10
2022-10-04T07:45:47.874Z,15.10
2022-10-04T07:48:44.147Z,15.10
2022-10-04T07:51:40.506Z,15.20
2022-10-04T07:57:22.850Z,15.30
2022-10-04T08:03:26.048Z,15.50
2022-10-04T08:09:10.904Z,15.40
2022-10-04T08:12:08.251Z,15.50
2022-10-04T08:17:55.791Z,15.60
2022-10-04T08:23:48.166Z,15.80
2022-10-04T08:26:53.195Z,15.90
2022-10-04T08:30:13.504Z,15.90
2022-10-04T08:33:09.593Z,16.00
2022-10-04T08:38:47.629Z,16.20
2022-10-04T08:42:04.220Z,16.20
2022-10-04T08:45:22.786Z,16.30
2022-10-04T08:48:46.648Z,16.40
2022-10-04T08:52:20.172Z,16.50
2022-10-04T08:58:56.410Z,16.60
2022-10-04T09:02:14.738Z,16.70
2022-10-04T09:05:32.540Z,16.70
2022-10-04T09:08:40.362Z,16.90
2022-10-04T09:12:00.171Z,16.90
2022-10-04T09:15:16.452Z,16.90
2022-10-04T09:18:28.814Z,17.00
2022-10-04T09:21:32.880Z,17.10
2022-10-04T09:24:46.287Z,17.10
2022-10-04T09:27:55.010Z,17.20
2022-10-04T09:31:03.161Z,17.40
2022-10-04T09:34:07.708Z,17.50
2022-10-04T09:37:32.495Z,17.50
2022-10-04T09:41:02.952Z,17.60
2022-10-04T09:44:26.307Z,17.70
2022-10-04T09:47:38.682Z,17.80
2022-10-04T09:50:52.120Z,17.90
2022-10-04T09:57:15.224Z,18.00
2022-10-04T10:00:21.081Z,18.10
2022-10-04T10:03:41.784Z,18.10
2022-10-04T10:06:55.851Z,18.20
2022-10-04T10:10:08.552Z,18.20
2022-10-04T10:13:35.624Z,18.30
2022-10-04T10:16:42.540Z,18.40
2022-10-04T10:20:00.788Z,18.40
2022-10-04T10:23:27.457Z,18.50
2022-10-04T10:27:04.585Z,18.60
2022-10-04T10:30:21.853Z,18.60
2022-10-04T10:33:32.441Z,18.60
2022-10-04T10:37:02.508Z,18.80
2022-10-04T10:40:19.948Z,18.80
2022-10-04T10:43:49.318Z,18.80
2022-10-04T10:46:50.346Z,19.00
2022-10-04T10:49:50.745Z,19.10
2022-10-04T10:53:05.191Z,19.10
2022-10-04T10:56:31.639Z,19.10
2022-10-04T11:00:06.095Z,19.10
2022-10-04T11:03:25.461Z,19.10
2022-10-04T11:09:55.884Z,19.50
2022-10-04T11:13:08.502Z,19.60
2022-10-04T11:19:46.816Z,19.60
2022-10-04T11:23:28.444Z,19.70
2022-10-04T11:26:48.524Z,19.70
2022-10-04T11:29:51.740Z,19.70
2022-10-04T11:33:18.968Z,19.80
2022-10-04T11:36:33.951Z,19.80
2022-10-04T11:40:09.455Z,19.90
2022-10-04T11:49:04.879Z,20.20
2022-10-04T11:52:45.541Z,20.30
2022-10-04T11:55:56.751Z,20.40
2022-10-04T11:59:11.258Z,20.50
2022-10-04T12:02:53.653Z,20.60
2022-10-04T12:06:13.622Z,20.60
2022-10-04T12:09:09.503Z,20.60
2022-10-04T12:12:40.057Z,20.70
2022-10-04T12:15:40.618Z,20.80
2022-10-04T12:19:07.635Z,20.90
2022-10-04T12:22:17.919Z,20.90
2022-10-04T12:25:33.241Z,21.00
2022-10-04T12:28:54.539Z,21.00
2022-10-04T12:31:50.528Z,21.10
2022-10-04T12:34:46.071Z,21.20
2022-10-04T12:37:40.715Z,21.20
2022-10-04T12:40:35.387Z,21.30
2022-10-04T12:43:31.827Z,21.30
2022-10-04T12:46:30.278Z,21.40
2022-10-04T12:49:29.330Z,21.50
2022-10-04T12:52:24.691Z,21.60
2022-10-04T12:55:21.913Z,21.60
2022-10-04T12:58:17.969Z,21.60
2022-10-04T13:04:07.806Z,21.80
2022-10-04T13:07:06.884Z,21.90
2022-10-04T13:10:23.625Z,21.90
2022-10-04T13:13:23.442Z,22.00
2022-10-04T13:19:18.047Z,22.00
2022-10-04T13:25:12.228Z,22.00
2022-10-04T13:28:11.750Z,22.10
2022-10-04T13:31:06.052Z,22.20
2022-10-04T13:34:01.838Z,22.30
2022-10-04T13:37:00.953Z,22.40
2022-10-04T13:40:07.329Z,22.40
2022-10-04T13:46:02.907Z,22.50
2022-10-04T13:49:06.600Z,22.60
2022-10-04T13:52:33.902Z,22.70
2022-10-04T13:55:48.308Z,22.70
2022-10-04T13:58:46.144Z,22.80
2022-10-04T14:01:57.353Z,22.70
2022-10-04T14:08:37.264Z,23.00
2022-10-04T14:15:24.409Z,24.50
2022-10-04T14:18:45.261Z,26.50
2022-10-04T14:22:07.553Z,28.50
2022-10-04T14:25:52.000Z,29.40
2022-10-04T14:29:18.399Z,29.50
2022-10-04T14:32:46.011Z,29.80
2022-10-04T14:35:40.821Z,30.70
2022-10-04T14:39:01.545Z,30.60
2022-10-04T14:42:36.098Z,28.90
2022-10-04T14:45:43.605Z,27.00
2022-10-04T14:48:51.353Z,25.90
2022-10-04T14:54:40.421Z,25.10
2022-10-04T14:57:50.383Z,24.80
2022-10-04T15:01:09.099Z,24.80
2022-10-04T15:04:25.101Z,25.70
2022-10-04T15:07:22.643Z,26.50
2022-10-04T15:10:18.836Z,27.50
2022-10-04T15:13:15.048Z,28.40
2022-10-04T15:16:21.130Z,29.00
2022-10-04T15:19:16.953Z,29.60
2022-10-04T15:22:16.233Z,29.80
2022-10-04T15:25:36.105Z,30.60
2022-10-04T15:28:38.095Z,30.60
2022-10-04T15:31:34.750Z,30.60
2022-10-04T15:34:33.660Z,30.70
2022-10-04T15:37:30.065Z,30.50
2022-10-04T15:40:31.710Z,30.40
2022-10-04T15:43:28.737Z,30.20
2022-10-04T15:46:40.595Z,30.80
2022-10-04T15:49:39.842Z,31.40
2022-10-04T15:52:55.436Z,31.10
2022-10-04T15:56:08.729Z,30.90
2022-10-04T15:59:24.942Z,30.30
2022-10-04T16:02:59.893Z,29.30
2022-10-04T16:05:56.882Z,28.90
2022-10-04T16:12:07.747Z,28.40
2022-10-04T16:15:05.180Z,27.90
2022-10-04T16:18:05.464Z,26.90
2022-10-04T16:21:08.011Z,26.00
2022-10-04T16:24:35.938Z,25.20
2022-10-04T16:30:52.562Z,24.10
2022-10-04T16:33:47.376Z,23.60
2022-10-04T16:36:49.878Z,23.40
2022-10-04T16:40:03.420Z,23.20
2022-10-04T16:43:00.027Z,23.00
2022-10-04T16:46:07.343Z,22.70
2022-10-04T16:49:01.580Z,22.40
2022-10-04T16:52:27.610Z,22.10
2022-10-04T16:55:39.183Z,21.90
2022-10-04T16:58:54.161Z,21.70
2022-10-04T17:02:10.768Z,21.60
2022-10-04T17:05:27.191Z,21.30
2022-10-04T17:08:27.852Z,21.10
2022-10-04T17:11:46.105Z,20.90
2022-10-04T17:17:47.288Z,20.60
2022-10-04T17:20:48.617Z,20.50
2022-10-04T17:23:53.296Z,20.40
2022-10-04T17:26:55.896Z,20.30
2022-10-04T17:29:54.672Z,20.20
2022-10-04T17:33:08.804Z,20.20
2022-10-04T17:39:32.003Z,20.00
2022-10-04T17:42:33.908Z,19.80
2022-10-04T17:45:48.602Z,19.80
2022-10-04T17:49:04.052Z,19.70
2022-10-04T17:52:16.484Z,19.60
2022-10-04T17:55:18.715Z,19.50
2022-10-04T17:58:15.520Z,19.50
2022-10-04T18:01:10.460Z,19.40
2022-10-04T18:04:10.015Z,19.40
2022-10-04T18:07:05.354Z,19.30
2022-10-04T18:09:58.971Z,19.30
2022-10-04T18:12:53.609Z,19.20
2022-10-04T18:15:48.661Z,19.10
2022-10-04T18:18:45.886Z,19.00
2022-10-04T18:21:41.969Z,19.00
2022-10-04T18:24:33.279Z,18.90
2022-10-04T18:27:26.750Z,18.90
2022-10-04T18:33:14.647Z,18.70
2022-10-04T18:36:12.640Z,18.70
2022-10-04T18:42:19.992Z,18.70
2022-10-04T18:45:21.922Z,18.60
2022-10-04T18:48:19.972Z,18.60
2022-10-04T18:51:28.371Z,18.50
2022-10-04T18:54:25.264Z,18.50
2022-10-04T18:57:24.431Z,18.40
2022-10-04T19:00:34.843Z,18.40
2022-10-04T19:03:29.452Z,18.40
2022-10-04T19:06:24.549Z,18.40
2022-10-04T19:09:18.652Z,18.30
2022-10-04T19:12:13.114Z,18.30
2022-10-04T19:15:11.751Z,18.20
2022-10-04T19:20:51.132Z,18.20
2022-10-04T19:23:45.968Z,18.40
2022-10-04T19:26:40.976Z,18.40
2022-10-04T19:29:39.862Z,18.30
2022-10-04T19:32:36.360Z,18.20
2022-10-04T19:35:42.514Z,18.10
2022-10-04T19:38:41.489Z,18.00
2022-10-04T19:41:45.077Z,17.90
2022-10-04T19:44:46.222Z,17.90
2022-10-04T19:47:49.120Z,17.80
2022-10-04T19:50:43.274Z,17.80
2022-10-04T19:53:37.635Z,17.70
2022-10-04T19:56:32.244Z,17.70
2022-10-04T19:59:27.666Z,17.70
2022-10-04T20:02:19.200Z,17.70
2022-10-04T20:05:16.966Z,17.60
2022-10-04T20:08:11.917Z,17.50
2022-10-04T20:11:18.450Z,17.50
2022-10-04T20:14:48.382Z,17.40
2022-10-04T20:17:40.292Z,17.40
2022-10-04T20:21:08.951Z,17.40
2022-10-04T20:24:01.783Z,17.40
2022-10-04T20:27:08.719Z,17.30
2022-10-04T20:30:06.482Z,17.30
2022-10-04T20:33:04.141Z,17.20
2022-10-04T20:36:04.025Z,17.20
2022-10-04T20:38:59.973Z,17.10
2022-10-04T20:42:24.153Z,17.10
2022-10-04T20:45:33.526Z,17.10
2022-10-04T20:48:29.065Z,17.00
2022-10-04T20:51:22.042Z,16.90
2022-10-04T20:54:20.277Z,16.90
2022-10-04T20:57:14.347Z,16.90
2022-10-04T21:00:06.530Z,16.90
2022-10-04T21:03:15.417Z,16.90
2022-10-04T21:06:10.075Z,17.00
2022-10-04T21:09:01.079Z,17.10
2022-10-04T21:11:55.190Z,17.20
2022-10-04T21:15:03.916Z,17.10
2022-10-04T21:18:07.256Z,17.10
2022-10-04T21:20:58.641Z,17.00
2022-10-04T21:23:49.718Z,16.90
2022-10-04T21:26:42.969Z,16.90
2022-10-04T21:29:36.070Z,16.90
2022-10-04T21:32:28.799Z,16.80
2022-10-04T21:35:22.890Z,16.70
2022-10-04T21:38:17.389Z,16.60
2022-10-04T21:43:51.020Z,16.60
2022-10-04T21:46:42.557Z,16.60
2022-10-04T21:49:34.773Z,16.60
2022-10-04T21:52:26.518Z,16.60
2022-10-04T21:55:19.527Z,16.70
2022-10-04T21:58:11.836Z,16.70
2022-10-04T22:01:03.880Z,16.70
2022-10-04T22:03:55.708Z,16.60
2022-10-04T22:06:48.143Z,16.60
2022-10-04T22:09:42.858Z,16.40
2022-10-04T22:12:34.183Z,16.30
2022-10-04T22:15:27.895Z,16.30
2022-10-04T22:18:20.523Z,16.30
2022-10-04T22:21:11.877Z,16.20
2022-10-04T22:26:43.124Z,16.20
2022-10-04T22:29:36.564Z,16.20
2022-10-04T22:32:30.456Z,16.20
2022-10-04T22:38:12.005Z,16.20
2022-10-04T22:41:04.791Z,16.20
2022-10-04T22:43:59.723Z,16.20
2022-10-04T22:46:53.811Z,16.20
2022-10-04T22:49:48.555Z,16.30
2022-10-04T22:52:40.144Z,16.20
2022-10-04T22:58:13.617Z,16.20
2022-10-04T23:01:07.103Z,16.20
2022-10-04T23:04:00.241Z,16.20
2022-10-04T23:06:52.622Z,16.10
2022-10-04T23:09:44.405Z,16.10
2022-10-04T23:12:36.185Z,16.00
2022-10-04T23:15:27.646Z,15.90
2022-10-04T23:18:20.683Z,15.90
2022-10-04T23:21:21.981Z,15.90
2022-10-04T23:24:17.400Z,15.90
2022-10-04T23:27:15.731Z,15.90
2022-10-04T23:30:07.697Z,15.90
2022-10-04T23:33:01.588Z,15.90
2022-10-04T23:35:55.211Z,15.90
2022-10-04T23:38:50.224Z,15.90
2022-10-04T23:41:41.604Z,15.90
2022-10-04T23:47:24.817Z,15.80
2022-10-04T23:50:24.851Z,15.80
2022-10-04T23:53:19.304Z,15.80
2022-10-04T23:56:15.884Z,15.70
